Mount Vernon, Virginia
Current Conditions -  °F | °C
As of 12:58 AM on Monday 26 Jan 2015 (Local Time) from KDAA Reporting Station
Overcast Overcast  
Wind Chill: 41°   Ceiling: 6000
Heat Index: 41°   Visibility: 10mi
Dew Point: 33°   Wind: 3mph
Humidity: 74%   Direction: 120°ESE
Pressure: 29.84"   Gusts: NA
Location:  38.71°N, 77.08°W
Report Text: KDAA 260558Z AUTO 12003KT 10SM OVC060 05/01 A2984 RMK AO2 SLP108 T00490006 10064 20039 58005
Loading
Personal Weather Stations






























Interactive Weather Map New forecast layout! Learn more

10-Day Weather Forecast

Advertisements
Track Severe Weather on mobile